createdAt,value
2023-03-13T00:01:56.795Z,5.60
2023-03-13T00:04:25.675Z,6.10
2023-03-13T00:06:54.304Z,5.70
2023-03-13T00:09:23.882Z,5.80
2023-03-13T00:11:52.546Z,5.40
2023-03-13T00:14:21.219Z,6.20
2023-03-13T00:16:49.862Z,5.70
2023-03-13T00:19:18.584Z,6.60
2023-03-13T00:21:47.170Z,6.70
2023-03-13T00:24:15.694Z,7.70
2023-03-13T00:26:44.361Z,6.60
2023-03-13T00:29:13.746Z,6.90
2023-03-13T00:31:43.264Z,7.70
2023-03-13T00:34:13.481Z,5.90
2023-03-13T00:36:42.145Z,6.80
2023-03-13T00:39:10.762Z,6.20
2023-03-13T00:41:39.648Z,6.30
2023-03-13T00:44:08.711Z,6.70
2023-03-13T00:46:38.029Z,7.20
2023-03-13T00:49:07.240Z,6.80
2023-03-13T00:51:36.220Z,6.60
2023-03-13T00:54:05.308Z,7.20
2023-03-13T00:56:34.841Z,8.20
2023-03-13T00:59:03.728Z,7.00
2023-03-13T01:01:34.637Z,9.00
2023-03-13T01:04:07.204Z,6.70
2023-03-13T01:06:39.142Z,7.60
2023-03-13T01:09:10.249Z,6.90
2023-03-13T01:11:40.676Z,6.90
2023-03-13T01:14:14.887Z,8.40
2023-03-13T01:16:43.674Z,7.00
2023-03-13T01:19:15.223Z,8.10
2023-03-13T01:21:45.424Z,9.40
2023-03-13T01:24:14.450Z,7.90
2023-03-13T01:26:44.748Z,7.20
2023-03-13T01:29:14.470Z,7.20
2023-03-13T01:31:43.447Z,7.10
2023-03-13T01:34:12.445Z,7.50
2023-03-13T01:36:41.041Z,6.90
2023-03-13T01:39:10.130Z,8.00
2023-03-13T01:41:39.122Z,8.70
2023-03-13T01:44:21.848Z,7.60
2023-03-13T01:46:50.767Z,6.40
2023-03-13T01:49:36.044Z,7.60
2023-03-13T01:52:27.078Z,8.80
2023-03-13T01:55:14.532Z,9.50
2023-03-13T01:57:49.671Z,10.10
2023-03-13T02:00:23.490Z,7.90
2023-03-13T02:02:54.733Z,8.50
2023-03-13T02:05:26.590Z,7.70
2023-03-13T02:08:04.604Z,8.70
2023-03-13T02:10:38.759Z,8.00
2023-03-13T02:13:07.399Z,8.60
2023-03-13T02:15:36.168Z,9.70
2023-03-13T02:18:05.169Z,8.60
2023-03-13T02:20:33.751Z,8.80
2023-03-13T02:23:25.772Z,9.50
2023-03-13T02:25:54.864Z,9.00
2023-03-13T02:28:33.602Z,8.40
2023-03-13T02:31:02.984Z,10.80
2023-03-13T02:33:36.900Z,8.90
2023-03-13T02:36:06.449Z,10.50
2023-03-13T02:38:41.068Z,10.70
2023-03-13T02:41:10.747Z,10.00
2023-03-13T02:43:40.975Z,9.90
2023-03-13T02:46:17.813Z,10.70
2023-03-13T02:48:53.721Z,9.90
2023-03-13T02:51:32.717Z,8.80
2023-03-13T02:54:10.649Z,10.60
2023-03-13T02:56:41.556Z,12.30
2023-03-13T02:59:10.423Z,11.50
2023-03-13T03:01:41.192Z,12.00
2023-03-13T03:04:09.841Z,13.50
2023-03-13T03:06:38.752Z,12.20
2023-03-13T03:09:07.799Z,14.40
2023-03-13T03:11:39.015Z,13.70
2023-03-13T03:14:11.401Z,13.70
2023-03-13T03:16:43.416Z,12.10
2023-03-13T03:19:12.114Z,13.80
2023-03-13T03:21:40.908Z,17.70
2023-03-13T03:24:09.585Z,12.00
2023-03-13T03:26:38.693Z,12.40
2023-03-13T03:29:12.895Z,14.70
2023-03-13T03:31:41.840Z,12.00
2023-03-13T03:34:10.887Z,12.90
2023-03-13T03:36:40.690Z,12.40
2023-03-13T03:39:09.383Z,10.90
2023-03-13T03:41:38.165Z,15.20
2023-03-13T03:44:07.785Z,11.70
2023-03-13T03:46:56.670Z,14.50
2023-03-13T03:49:26.130Z,12.80
2023-03-13T03:51:55.044Z,15.70
2023-03-13T03:54:31.810Z,14.30
2023-03-13T03:57:01.294Z,12.30
2023-03-13T03:59:30.398Z,13.40
2023-03-13T04:02:03.629Z,14.20
2023-03-13T04:04:33.311Z,12.30
2023-03-13T04:07:22.677Z,13.90
2023-03-13T04:09:52.392Z,14.30
2023-03-13T04:12:29.894Z,13.40
2023-03-13T04:14:58.870Z,17.10
2023-03-13T04:17:27.991Z,13.80
2023-03-13T04:19:56.646Z,12.10
2023-03-13T04:22:25.755Z,14.30
2023-03-13T04:24:59.152Z,13.80
2023-03-13T04:27:29.874Z,13.40
2023-03-13T04:29:58.688Z,13.90
2023-03-13T04:32:45.419Z,13.80
2023-03-13T04:35:20.570Z,15.40
2023-03-13T04:38:28.322Z,14.20
2023-03-13T04:41:23.512Z,16.90
2023-03-13T04:44:08.532Z,14.90
2023-03-13T04:46:57.547Z,15.50
2023-03-13T04:49:46.405Z,15.90
2023-03-13T04:52:34.256Z,13.50
2023-03-13T04:55:21.761Z,12.50
2023-03-13T04:58:05.471Z,12.80
2023-03-13T05:00:57.429Z,11.60
2023-03-13T05:03:58.265Z,14.80
2023-03-13T05:06:39.859Z,14.60
2023-03-13T05:09:21.959Z,14.60
2023-03-13T05:11:53.419Z,12.90
2023-03-13T05:14:42.175Z,13.90
2023-03-13T05:17:28.274Z,13.20
2023-03-13T05:20:14.998Z,16.00
2023-03-13T05:22:55.230Z,15.00
2023-03-13T05:25:42.672Z,12.50
2023-03-13T05:28:17.082Z,14.00
2023-03-13T05:31:09.152Z,13.20
2023-03-13T05:33:58.395Z,16.40
2023-03-13T05:36:45.891Z,16.10
2023-03-13T05:39:34.871Z,13.50
2023-03-13T05:42:23.014Z,16.10
2023-03-13T05:45:12.671Z,17.50
2023-03-13T05:47:47.584Z,14.40
2023-03-13T05:50:36.573Z,14.10
2023-03-13T05:53:27.895Z,14.10
2023-03-13T05:56:08.545Z,15.80
2023-03-13T05:58:46.447Z,14.20
2023-03-13T06:01:44.626Z,17.20
2023-03-13T06:04:27.726Z,16.80
2023-03-13T06:06:56.631Z,13.20
2023-03-13T06:09:26.172Z,15.30
2023-03-13T06:11:57.597Z,17.10
2023-03-13T06:14:26.787Z,15.90
2023-03-13T06:17:14.104Z,14.70
2023-03-13T06:19:43.927Z,15.20
2023-03-13T06:22:12.505Z,16.40
2023-03-13T06:24:41.699Z,14.50
2023-03-13T06:27:10.703Z,14.00
2023-03-13T06:29:39.535Z,13.40
2023-03-13T06:32:08.612Z,14.40
2023-03-13T06:34:38.004Z,16.20
2023-03-13T06:37:06.584Z,15.00
2023-03-13T06:39:35.363Z,15.80
2023-03-13T06:42:04.667Z,13.70
2023-03-13T06:44:33.346Z,13.80
2023-03-13T06:47:02.181Z,11.90
2023-03-13T06:49:32.252Z,14.60
2023-03-13T06:52:01.188Z,14.90
2023-03-13T06:54:30.528Z,12.20
2023-03-13T06:56:59.220Z,16.40
2023-03-13T06:59:28.001Z,12.60
2023-03-13T07:01:56.805Z,11.80
2023-03-13T07:04:25.496Z,10.70
2023-03-13T07:06:54.063Z,13.40
2023-03-13T07:09:22.869Z,12.80
2023-03-13T07:11:51.671Z,11.90
2023-03-13T07:14:20.430Z,12.20
2023-03-13T07:16:50.274Z,11.10
2023-03-13T07:19:19.270Z,11.20
2023-03-13T07:21:47.929Z,13.50
2023-03-13T07:24:16.778Z,12.50
2023-03-13T07:26:58.104Z,11.60
2023-03-13T07:29:33.944Z,13.80
2023-03-13T07:32:02.622Z,12.30
2023-03-13T07:34:31.449Z,14.40
2023-03-13T07:37:00.238Z,12.30
2023-03-13T07:39:29.098Z,12.80
2023-03-13T07:41:57.885Z,12.60
2023-03-13T07:44:26.697Z,12.60
2023-03-13T07:46:55.456Z,14.90
2023-03-13T07:49:24.897Z,13.10
2023-03-13T07:51:53.871Z,14.80
2023-03-13T07:54:22.651Z,11.10
2023-03-13T07:56:52.062Z,11.40
2023-03-13T07:59:20.959Z,11.30
2023-03-13T08:01:50.100Z,11.30
2023-03-13T08:04:18.519Z,12.60
2023-03-13T08:06:47.403Z,10.70
2023-03-13T08:09:17.117Z,11.60
2023-03-13T08:11:46.332Z,10.10
2023-03-13T08:14:15.745Z,11.20
2023-03-13T08:16:44.336Z,10.50
2023-03-13T08:19:13.900Z,12.60
2023-03-13T08:21:42.589Z,12.00
2023-03-13T08:24:13.435Z,10.80
2023-03-13T08:26:43.437Z,11.20
2023-03-13T08:29:14.154Z,14.50
2023-03-13T08:31:44.456Z,14.40
2023-03-13T08:34:13.691Z,12.00
2023-03-13T08:36:42.685Z,13.10
2023-03-13T08:39:17.136Z,9.40
2023-03-13T08:41:46.004Z,8.10
2023-03-13T08:44:17.298Z,8.50
2023-03-13T08:46:46.019Z,10.20
2023-03-13T08:49:18.032Z,7.20
2023-03-13T08:51:46.877Z,11.30
2023-03-13T08:54:16.696Z,10.40
2023-03-13T08:56:45.598Z,10.00
2023-03-13T08:59:16.027Z,10.50
2023-03-13T09:01:44.895Z,12.10
2023-03-13T09:04:14.043Z,8.90
2023-03-13T09:06:42.797Z,10.00
2023-03-13T09:09:13.306Z,10.70
2023-03-13T09:11:41.891Z,9.00
2023-03-13T09:14:11.312Z,7.50
2023-03-13T09:16:40.315Z,9.40
2023-03-13T09:19:09.306Z,10.80
2023-03-13T09:21:38.077Z,7.70
2023-03-13T09:24:07.398Z,11.10
2023-03-13T09:26:36.071Z,11.50
2023-03-13T09:29:05.084Z,11.20
2023-03-13T09:31:34.701Z,11.00
2023-03-13T09:34:03.855Z,7.10
2023-03-13T09:36:32.554Z,10.80
2023-03-13T09:39:01.851Z,8.30
2023-03-13T09:41:37.188Z,7.30
2023-03-13T09:44:17.358Z,10.00
2023-03-13T09:47:22.881Z,8.90
2023-03-13T09:50:05.827Z,12.60
2023-03-13T09:52:44.072Z,8.10
2023-03-13T09:55:21.734Z,13.10
2023-03-13T09:58:18.986Z,10.10
2023-03-13T10:01:05.059Z,10.90
2023-03-13T10:03:44.894Z,9.90
2023-03-13T10:06:25.063Z,9.10
2023-03-13T10:08:53.737Z,8.80
2023-03-13T10:11:43.108Z,10.10
2023-03-13T10:14:39.783Z,8.70
2023-03-13T10:17:08.461Z,10.80
2023-03-13T10:19:42.645Z,8.70
2023-03-13T10:22:24.681Z,11.20
2023-03-13T10:25:03.905Z,8.20
2023-03-13T10:27:32.560Z,9.80
2023-03-13T10:30:01.145Z,8.50
2023-03-13T10:32:30.073Z,9.60
2023-03-13T10:35:03.463Z,12.10
2023-03-13T10:37:43.786Z,22.70
2023-03-13T10:40:25.703Z,8.70
2023-03-13T10:43:01.359Z,10.60
2023-03-13T10:45:33.812Z,11.30
2023-03-13T10:48:13.051Z,11.40
2023-03-13T10:50:46.963Z,10.20
2023-03-13T10:53:30.898Z,9.50
2023-03-13T10:56:17.915Z,8.30
2023-03-13T10:58:49.078Z,10.00
2023-03-13T11:01:26.905Z,9.70
2023-03-13T11:03:58.177Z,8.60
2023-03-13T11:06:35.453Z,10.20
2023-03-13T11:09:20.268Z,8.20
2023-03-13T11:11:56.178Z,12.70
2023-03-13T11:14:26.346Z,11.00
2023-03-13T11:17:15.924Z,9.40
2023-03-13T11:19:55.972Z,7.50
2023-03-13T11:22:30.972Z,10.10
2023-03-13T11:25:21.148Z,8.50
2023-03-13T11:28:05.342Z,9.80
2023-03-13T11:30:40.716Z,9.50
2023-03-13T11:33:51.433Z,8.00
2023-03-13T11:36:25.990Z,8.10
2023-03-13T11:39:27.217Z,10.60
2023-03-13T11:42:05.746Z,8.10
2023-03-13T11:44:47.029Z,7.80
2023-03-13T11:47:34.433Z,9.90
2023-03-13T11:50:16.610Z,9.90
2023-03-13T11:53:13.007Z,7.20
2023-03-13T11:55:46.067Z,9.60
2023-03-13T11:58:37.874Z,9.80
2023-03-13T12:01:15.741Z,10.40
2023-03-13T12:04:26.038Z,10.70
2023-03-13T12:07:07.226Z,7.60
2023-03-13T12:10:15.542Z,7.60
2023-03-13T12:12:52.848Z,5.40
2023-03-13T12:15:29.073Z,7.20
2023-03-13T12:18:10.470Z,5.40
2023-03-13T12:20:43.954Z,5.50
2023-03-13T12:23:21.144Z,8.10
2023-03-13T12:25:57.161Z,6.60
2023-03-13T12:28:35.268Z,5.20
2023-03-13T12:31:18.222Z,5.40
2023-03-13T12:33:56.166Z,5.00
2023-03-13T12:36:42.493Z,9.60
2023-03-13T12:39:36.639Z,8.10
2023-03-13T12:42:58.855Z,6.90
2023-03-13T12:45:29.764Z,6.60
2023-03-13T12:48:13.379Z,5.30
2023-03-13T12:51:19.669Z,4.50
2023-03-13T12:54:16.504Z,5.20
2023-03-13T12:57:02.655Z,5.60
2023-03-13T12:59:59.573Z,6.20
2023-03-13T13:02:29.440Z,5.40
2023-03-13T13:05:01.051Z,6.80
2023-03-13T13:07:34.143Z,6.50
2023-03-13T13:10:11.671Z,5.70
2023-03-13T13:12:48.431Z,7.10
2023-03-13T13:15:21.198Z,9.00
2023-03-13T13:18:09.961Z,8.30
2023-03-13T13:20:44.769Z,4.70
2023-03-13T13:23:54.632Z,9.60
2023-03-13T13:26:36.732Z,7.00
2023-03-13T13:29:14.314Z,5.10
2023-03-13T13:31:49.833Z,10.70
2023-03-13T13:34:36.777Z,6.10
2023-03-13T13:37:18.273Z,6.30
2023-03-13T13:39:50.510Z,7.10
2023-03-13T13:42:48.097Z,7.10
2023-03-13T13:45:16.707Z,6.50
2023-03-13T13:47:47.902Z,7.10
2023-03-13T13:50:27.866Z,7.00
2023-03-13T13:53:35.188Z,5.80
2023-03-13T13:56:10.656Z,6.10
2023-03-13T13:58:44.345Z,7.10
2023-03-13T14:01:17.062Z,8.70
2023-03-13T14:03:48.132Z,6.80
2023-03-13T14:06:35.464Z,5.40
2023-03-13T14:09:27.284Z,7.50
2023-03-13T14:11:57.304Z,5.70
2023-03-13T14:14:27.148Z,6.60
2023-03-13T14:16:57.657Z,6.50
2023-03-13T14:19:40.171Z,6.10
2023-03-13T14:22:10.655Z,5.70
2023-03-13T14:24:39.270Z,5.70
2023-03-13T14:27:19.127Z,6.20
2023-03-13T14:30:05.202Z,8.30
2023-03-13T14:32:34.136Z,6.50
2023-03-13T14:35:06.226Z,7.70
2023-03-13T14:37:43.462Z,6.70
2023-03-13T14:40:23.835Z,7.00
2023-03-13T14:42:55.263Z,8.50
2023-03-13T14:45:32.694Z,8.00
2023-03-13T14:48:28.895Z,6.70
2023-03-13T14:51:25.209Z,6.50
2023-03-13T14:53:56.242Z,5.90
2023-03-13T14:56:42.570Z,6.40
2023-03-13T14:59:20.665Z,8.30
2023-03-13T15:02:19.056Z,7.30
2023-03-13T15:05:11.483Z,7.80
2023-03-13T15:07:49.560Z,7.00
2023-03-13T15:10:24.912Z,5.60
2023-03-13T15:12:54.041Z,6.90
2023-03-13T15:15:22.818Z,6.40
2023-03-13T15:17:51.717Z,7.30
2023-03-13T15:20:23.452Z,6.60
2023-03-13T15:22:52.272Z,7.40
2023-03-13T15:25:23.810Z,6.30
2023-03-13T15:27:52.375Z,6.70
2023-03-13T15:30:25.540Z,5.00
2023-03-13T15:32:54.394Z,7.40
2023-03-13T15:35:32.196Z,8.10
2023-03-13T15:38:02.713Z,7.70
2023-03-13T15:40:31.761Z,7.40
2023-03-13T15:43:00.788Z,7.70
2023-03-13T15:45:29.574Z,7.90
2023-03-13T15:47:58.998Z,7.50
2023-03-13T15:50:30.057Z,10.40
2023-03-13T15:52:59.096Z,12.50
2023-03-13T15:55:29.437Z,7.70
2023-03-13T15:57:58.346Z,8.20
2023-03-13T16:00:27.914Z,7.60
2023-03-13T16:02:56.636Z,8.20
2023-03-13T16:05:25.409Z,7.20
2023-03-13T16:07:54.196Z,8.00
2023-03-13T16:10:25.825Z,7.60
2023-03-13T16:12:55.557Z,7.90
2023-03-13T16:15:24.653Z,7.80
2023-03-13T16:17:53.534Z,9.50
2023-03-13T16:20:25.314Z,8.60
2023-03-13T16:22:54.491Z,5.90
2023-03-13T16:25:24.157Z,8.40
2023-03-13T16:27:55.298Z,6.70
2023-03-13T16:30:33.671Z,7.20
2023-03-13T16:33:03.388Z,6.30
2023-03-13T16:35:32.883Z,7.70
2023-03-13T16:38:02.938Z,7.10
2023-03-13T16:40:33.500Z,7.00
2023-03-13T16:43:03.336Z,8.00
2023-03-13T16:45:32.452Z,7.80
2023-03-13T16:48:01.847Z,8.60
2023-03-13T16:50:36.714Z,7.60
2023-03-13T16:53:05.651Z,9.50
2023-03-13T16:55:37.087Z,7.40
2023-03-13T16:58:06.334Z,6.20
2023-03-13T17:00:35.337Z,7.20
2023-03-13T17:03:05.702Z,7.20
2023-03-13T17:05:36.241Z,8.70
2023-03-13T17:08:05.442Z,6.70
2023-03-13T17:10:34.643Z,7.40
2023-03-13T17:13:05.953Z,7.30
2023-03-13T17:15:35.038Z,5.90
2023-03-13T17:18:04.269Z,8.90
2023-03-13T17:20:33.676Z,6.90
2023-03-13T17:23:03.693Z,6.40
2023-03-13T17:25:33.612Z,8.00
2023-03-13T17:28:03.336Z,6.90
2023-03-13T17:30:32.830Z,6.40
2023-03-13T17:33:02.485Z,7.50
2023-03-13T17:35:31.938Z,8.20
2023-03-13T17:38:01.235Z,7.30
2023-03-13T17:40:33.089Z,6.40
2023-03-13T17:43:04.366Z,6.70
2023-03-13T17:45:37.535Z,6.90
2023-03-13T17:48:09.642Z,7.50
2023-03-13T17:50:39.828Z,7.90
2023-03-13T17:53:10.592Z,7.40
2023-03-13T17:55:41.137Z,9.60
2023-03-13T17:58:10.675Z,8.30
2023-03-13T18:00:45.346Z,8.30
2023-03-13T18:03:15.096Z,9.70
2023-03-13T18:05:46.041Z,9.80
2023-03-13T18:08:16.692Z,11.60
2023-03-13T18:10:49.606Z,9.10
2023-03-13T18:13:19.620Z,10.00
2023-03-13T18:15:49.994Z,9.50
2023-03-13T18:18:20.485Z,10.20
2023-03-13T18:20:52.418Z,9.00
2023-03-13T18:23:23.271Z,9.40
2023-03-13T18:25:54.056Z,8.40
2023-03-13T18:28:24.986Z,8.20
2023-03-13T18:30:55.154Z,8.20
2023-03-13T18:33:27.387Z,7.60
2023-03-13T18:35:58.086Z,9.90
2023-03-13T18:38:28.564Z,8.70
2023-03-13T18:40:58.440Z,8.10
2023-03-13T18:43:28.728Z,8.20
2023-03-13T18:45:58.750Z,7.70
2023-03-13T18:48:30.609Z,9.50
2023-03-13T18:51:02.898Z,10.90
2023-03-13T18:53:32.655Z,8.30
2023-03-13T18:56:14.655Z,9.00
2023-03-13T18:58:50.356Z,7.60
2023-03-13T19:01:24.255Z,11.60
2023-03-13T19:03:55.053Z,11.00
2023-03-13T19:06:27.634Z,10.30
2023-03-13T19:09:01.014Z,8.70
2023-03-13T19:11:33.056Z,10.60
2023-03-13T19:14:08.539Z,10.10
2023-03-13T19:16:53.725Z,9.90
2023-03-13T19:19:26.797Z,10.30
2023-03-13T19:22:00.207Z,10.50
2023-03-13T19:24:32.952Z,11.80
2023-03-13T19:27:06.303Z,8.60
2023-03-13T19:29:42.575Z,8.90
2023-03-13T19:32:19.824Z,8.20
2023-03-13T19:34:50.379Z,8.50
2023-03-13T19:37:22.982Z,9.60
2023-03-13T19:39:56.474Z,9.20
2023-03-13T19:42:28.371Z,10.30
2023-03-13T19:44:59.514Z,9.20
2023-03-13T19:47:32.021Z,7.80
2023-03-13T19:50:02.721Z,9.80
2023-03-13T19:52:33.041Z,8.80
2023-03-13T19:55:10.398Z,8.20
2023-03-13T19:57:40.666Z,9.10
2023-03-13T20:00:22.700Z,6.80
2023-03-13T20:02:56.212Z,7.70
2023-03-13T20:05:33.038Z,8.00
2023-03-13T20:08:06.923Z,7.40
2023-03-13T20:10:44.929Z,9.00
2023-03-13T20:13:20.215Z,8.70
2023-03-13T20:15:52.193Z,8.90
2023-03-13T20:18:23.779Z,10.10
2023-03-13T20:20:55.120Z,8.60
2023-03-13T20:23:30.854Z,10.00
2023-03-13T20:26:11.050Z,8.50
2023-03-13T20:28:45.468Z,7.70
2023-03-13T20:31:18.700Z,8.40
2023-03-13T20:33:50.432Z,9.30
2023-03-13T20:36:22.482Z,9.80
2023-03-13T20:38:53.692Z,9.10
2023-03-13T20:41:32.533Z,9.60
2023-03-13T20:44:03.867Z,10.00
2023-03-13T20:46:37.725Z,8.90
2023-03-13T20:49:07.850Z,9.60
2023-03-13T20:51:40.007Z,10.20
2023-03-13T20:54:09.712Z,7.50
2023-03-13T20:56:43.441Z,8.70
2023-03-13T20:59:16.038Z,8.60
2023-03-13T21:01:46.751Z,10.30
2023-03-13T21:04:19.565Z,8.60
2023-03-13T21:06:54.017Z,8.90
2023-03-13T21:09:23.936Z,8.40
2023-03-13T21:11:54.208Z,7.90
2023-03-13T21:14:24.589Z,8.20
2023-03-13T21:16:53.887Z,8.90
2023-03-13T21:19:22.967Z,10.60
2023-03-13T21:21:53.549Z,9.30
2023-03-13T21:24:24.616Z,9.70
2023-03-13T21:26:55.204Z,10.90
2023-03-13T21:29:24.907Z,11.30
2023-03-13T21:31:55.288Z,10.00
2023-03-13T21:34:26.553Z,8.00
2023-03-13T21:36:55.096Z,9.80
2023-03-13T21:39:24.139Z,9.20
2023-03-13T21:41:53.246Z,9.20
2023-03-13T21:44:22.394Z,9.00
2023-03-13T21:46:52.093Z,9.50
2023-03-13T21:49:21.451Z,11.00
2023-03-13T21:51:50.117Z,11.10
2023-03-13T21:54:19.215Z,10.20
2023-03-13T21:56:48.246Z,9.30
2023-03-13T21:59:18.469Z,10.40
2023-03-13T22:01:47.113Z,10.50
2023-03-13T22:04:16.413Z,10.30
2023-03-13T22:06:46.692Z,10.70
2023-03-13T22:09:15.645Z,9.30
2023-03-13T22:11:44.307Z,11.00
2023-03-13T22:14:14.846Z,9.00
2023-03-13T22:16:43.723Z,10.20
2023-03-13T22:19:14.873Z,10.60
2023-03-13T22:21:45.086Z,9.60
2023-03-13T22:24:13.676Z,9.80
2023-03-13T22:26:43.706Z,11.40
2023-03-13T22:29:12.489Z,9.10
2023-03-13T22:31:41.284Z,9.30
2023-03-13T22:34:10.087Z,9.40
2023-03-13T22:36:38.885Z,8.70
2023-03-13T22:39:08.146Z,9.00
2023-03-13T22:41:36.946Z,7.90
2023-03-13T22:44:05.952Z,7.90
2023-03-13T22:46:34.728Z,10.90
2023-03-13T22:49:04.034Z,6.90
2023-03-13T22:51:32.704Z,8.40
2023-03-13T22:54:02.029Z,10.40
2023-03-13T22:56:30.730Z,8.90
2023-03-13T22:59:00.409Z,9.90
2023-03-13T23:01:29.332Z,10.00
2023-03-13T23:03:58.404Z,8.60
2023-03-13T23:06:28.391Z,8.30
2023-03-13T23:08:58.426Z,7.70
2023-03-13T23:11:27.933Z,10.80
2023-03-13T23:13:56.626Z,10.10
2023-03-13T23:16:26.026Z,7.70
2023-03-13T23:18:54.584Z,9.50
2023-03-13T23:21:24.740Z,8.10
2023-03-13T23:23:56.255Z,8.90
2023-03-13T23:26:25.052Z,9.60
2023-03-13T23:28:53.648Z,9.90
2023-03-13T23:31:22.907Z,9.50
2023-03-13T23:33:51.726Z,10.70
2023-03-13T23:36:20.532Z,11.60
2023-03-13T23:38:50.738Z,8.30
2023-03-13T23:41:20.550Z,8.60
2023-03-13T23:43:49.430Z,12.50
2023-03-13T23:46:20.723Z,22.60
2023-03-13T23:48:49.266Z,21.40
2023-03-13T23:51:17.945Z,22.20
2023-03-13T23:53:46.756Z,13.60
2023-03-13T23:56:15.618Z,12.60
2023-03-13T23:58:45.062Z,12.50
